createdAt,value
2023-05-25T00:01:08.433Z,23.20
2023-05-25T00:03:36.135Z,23.20
2023-05-25T00:06:03.169Z,23.20
2023-05-25T00:08:30.072Z,23.20
2023-05-25T00:10:56.859Z,23.20
2023-05-25T00:33:38.364Z,23.20
2023-05-25T00:38:36.886Z,23.20
2023-05-25T00:41:03.667Z,23.20
2023-05-25T00:43:30.307Z,23.20
2023-05-25T00:45:57.879Z,23.20
2023-05-25T00:48:26.733Z,23.20
2023-05-25T00:50:57.956Z,23.10
2023-05-25T00:53:24.620Z,23.20
2023-05-25T00:56:02.170Z,23.20
2023-05-25T00:58:33.090Z,23.20
2023-05-25T01:01:01.387Z,23.20
2023-05-25T01:03:34.317Z,23.20
2023-05-25T01:06:02.584Z,23.20
2023-05-25T01:08:31.389Z,23.20
2023-05-25T01:11:00.572Z,23.20
2023-05-25T01:13:28.631Z,23.10
2023-05-25T01:15:56.126Z,23.10
2023-05-25T01:18:22.758Z,23.20
2023-05-25T01:20:57.069Z,23.20
2023-05-25T01:23:28.767Z,23.10
2023-05-25T01:33:46.661Z,23.10
2023-05-25T01:36:14.175Z,23.10
2023-05-25T01:38:41.046Z,23.10
2023-05-25T01:41:07.662Z,23.10
2023-05-25T01:43:34.241Z,23.10
2023-05-25T01:46:12.013Z,23.10
2023-05-25T01:51:45.079Z,23.10
2023-05-25T01:54:23.066Z,23.10
2023-05-25T01:56:51.961Z,23.10
2023-05-25T01:59:21.517Z,23.10
2023-05-25T02:04:22.179Z,23.10
2023-05-25T02:06:51.259Z,23.10
2023-05-25T02:09:17.833Z,23.10
2023-05-25T02:11:44.478Z,23.10
2023-05-25T02:16:45.918Z,23.10
2023-05-25T02:19:14.964Z,23.10
2023-05-25T02:36:53.315Z,23.10
2023-05-25T02:39:19.946Z,23.10
2023-05-25T02:41:46.523Z,23.10
2023-05-25T02:44:13.147Z,23.10
2023-05-25T02:46:39.829Z,23.10
2023-05-25T02:49:06.417Z,23.10
2023-05-25T02:51:33.453Z,23.00
2023-05-25T02:54:00.064Z,23.10
2023-05-25T02:56:27.472Z,23.10
2023-05-25T02:58:54.142Z,23.10
2023-05-25T03:01:20.920Z,23.10
2023-05-25T03:03:52.276Z,23.10
2023-05-25T03:06:21.398Z,23.10
2023-05-25T03:08:48.040Z,23.10
2023-05-25T03:13:47.058Z,23.00
2023-05-25T03:26:20.176Z,23.10
2023-05-25T03:28:46.732Z,23.00
2023-05-25T03:31:13.948Z,23.00
2023-05-25T03:33:40.576Z,23.00
2023-05-25T03:36:12.205Z,23.00
2023-05-25T03:38:39.155Z,23.00
2023-05-25T03:41:05.859Z,23.00
2023-05-25T03:43:32.510Z,23.00
2023-05-25T03:45:59.098Z,23.00
2023-05-25T03:48:25.848Z,23.00
2023-05-25T03:50:52.617Z,23.00
2023-05-25T03:53:19.320Z,23.00
2023-05-25T03:55:46.528Z,23.00
2023-05-25T03:58:13.329Z,23.00
2023-05-25T04:00:39.887Z,23.00
2023-05-25T04:03:06.911Z,23.00
2023-05-25T04:05:33.648Z,23.00
2023-05-25T04:08:00.296Z,23.00
2023-05-25T04:10:26.905Z,23.00
2023-05-25T04:12:56.551Z,23.00
2023-05-25T04:15:23.338Z,23.00
2023-05-25T04:17:49.955Z,23.00
2023-05-25T04:20:16.664Z,23.00
2023-05-25T04:25:16.959Z,23.00
2023-05-25T04:27:46.521Z,23.00
2023-05-25T04:32:45.728Z,23.00
2023-05-25T04:35:14.917Z,23.00
2023-05-25T04:37:41.648Z,23.00
2023-05-25T04:40:13.899Z,23.00
2023-05-25T04:42:41.501Z,23.00
2023-05-25T04:47:43.555Z,22.90
2023-05-25T04:50:10.984Z,23.00
2023-05-25T05:00:16.012Z,22.90
2023-05-25T05:02:44.057Z,22.90
2023-05-25T05:10:14.049Z,22.90
2023-05-25T05:12:40.907Z,22.90
2023-05-25T05:15:07.994Z,22.90
2023-05-25T05:17:34.604Z,22.90
2023-05-25T05:20:01.278Z,22.90
2023-05-25T05:22:27.883Z,22.90
2023-05-25T05:24:54.670Z,22.90
2023-05-25T05:27:21.260Z,22.90
2023-05-25T05:29:47.820Z,22.90
2023-05-25T05:32:14.440Z,22.90
2023-05-25T05:34:40.996Z,22.90
2023-05-25T05:37:07.569Z,22.90
2023-05-25T05:39:34.218Z,22.90
2023-05-25T05:42:01.521Z,22.90
2023-05-25T05:44:29.531Z,22.90
2023-05-25T05:47:00.766Z,22.90
2023-05-25T05:49:29.209Z,22.90
2023-05-25T05:51:55.908Z,22.90
2023-05-25T05:54:22.850Z,22.90
2023-05-25T05:56:50.379Z,22.90
2023-05-25T05:59:17.156Z,22.90
2023-05-25T06:01:44.064Z,22.90
2023-05-25T06:04:10.700Z,22.90
2023-05-25T06:06:38.528Z,22.90
2023-05-25T06:11:39.866Z,22.90
2023-05-25T06:16:38.460Z,22.80
2023-05-25T06:19:05.138Z,22.80
2023-05-25T06:21:31.730Z,22.90
2023-05-25T06:44:12.117Z,22.90
2023-05-25T06:46:39.522Z,22.80
2023-05-25T06:49:06.255Z,22.90
2023-05-25T06:51:33.348Z,22.80
2023-05-25T06:53:59.963Z,22.80
2023-05-25T06:56:27.903Z,22.80
2023-05-25T06:58:54.578Z,22.80
2023-05-25T07:01:21.274Z,22.60
2023-05-25T07:03:47.917Z,22.40
2023-05-25T07:06:15.122Z,22.40
2023-05-25T07:08:41.790Z,22.40
2023-05-25T07:11:12.285Z,22.40
2023-05-25T07:13:38.946Z,22.40
2023-05-25T07:16:05.888Z,22.30
2023-05-25T07:18:32.554Z,22.40
2023-05-25T07:20:59.324Z,22.40
2023-05-25T07:23:26.011Z,22.30
2023-05-25T07:25:52.657Z,22.30
2023-05-25T07:28:19.273Z,22.30
2023-05-25T07:30:45.954Z,22.30
2023-05-25T07:33:12.570Z,22.30
2023-05-25T07:35:39.216Z,22.20
2023-05-25T07:38:05.837Z,22.20
2023-05-25T07:40:32.782Z,22.20
2023-05-25T07:42:59.414Z,22.20
2023-05-25T07:53:00.819Z,22.30
2023-05-25T08:03:05.667Z,22.50
2023-05-25T08:05:32.418Z,22.50
2023-05-25T08:07:58.983Z,22.60
2023-05-25T08:10:31.213Z,22.60
2023-05-25T08:12:58.998Z,22.60
2023-05-25T08:15:26.419Z,22.60
2023-05-25T08:17:53.115Z,22.60
2023-05-25T08:20:19.780Z,22.60
2023-05-25T08:22:46.379Z,22.60
2023-05-25T08:25:13.067Z,22.60
2023-05-25T08:27:39.754Z,22.60
2023-05-25T08:30:08.052Z,22.70
2023-05-25T08:32:34.708Z,22.70
2023-05-25T08:35:03.171Z,22.60
2023-05-25T08:37:31.516Z,22.60
2023-05-25T08:45:05.408Z,22.70
2023-05-25T08:47:33.910Z,22.70
2023-05-25T08:50:03.794Z,22.70
2023-05-25T08:52:33.493Z,22.70
2023-05-25T08:55:05.030Z,22.70
2023-05-25T08:57:55.714Z,22.70
2023-05-25T09:00:27.679Z,22.70
2023-05-25T09:03:02.256Z,22.70
2023-05-25T09:05:28.996Z,22.70
2023-05-25T09:07:56.598Z,22.70
2023-05-25T09:10:24.644Z,22.70
2023-05-25T09:12:52.329Z,22.70
2023-05-25T09:15:19.026Z,22.70
2023-05-25T09:17:45.622Z,22.70
2023-05-25T09:20:15.605Z,22.70
2023-05-25T09:25:20.359Z,22.70
2023-05-25T09:27:47.251Z,22.70
2023-05-25T09:30:13.946Z,22.70
2023-05-25T09:32:40.899Z,22.70
2023-05-25T09:35:12.267Z,22.70
2023-05-25T09:37:40.329Z,22.80
2023-05-25T09:40:09.085Z,22.70
2023-05-25T09:42:36.369Z,22.70
2023-05-25T09:52:41.758Z,22.70
2023-05-25T09:55:10.372Z,22.70
2023-05-25T09:57:37.079Z,22.70
2023-05-25T10:00:05.602Z,22.80
2023-05-25T10:02:32.760Z,22.80
2023-05-25T10:12:41.881Z,22.80
2023-05-25T10:15:11.964Z,22.80
2023-05-25T10:17:45.531Z,22.70
2023-05-25T10:20:14.520Z,22.80
2023-05-25T10:22:51.284Z,22.80
2023-05-25T10:30:56.859Z,22.80
2023-05-25T10:33:24.096Z,22.80
2023-05-25T10:36:02.937Z,22.80
2023-05-25T10:38:39.197Z,22.80
2023-05-25T10:41:06.221Z,22.80
2023-05-25T10:48:48.302Z,22.80
2023-05-25T10:53:58.247Z,22.80
2023-05-25T10:56:24.998Z,22.80
2023-05-25T10:58:53.536Z,22.80
2023-05-25T11:01:20.642Z,22.80
2023-05-25T11:03:47.461Z,22.80
2023-05-25T11:06:15.609Z,22.80
2023-05-25T11:08:55.265Z,22.80
2023-05-25T11:11:42.528Z,22.80
2023-05-25T11:14:28.072Z,22.80
2023-05-25T11:22:35.189Z,22.80
2023-05-25T11:25:22.749Z,22.80
2023-05-25T11:27:54.124Z,22.80
2023-05-25T11:30:27.393Z,22.80
2023-05-25T11:32:54.932Z,22.80
2023-05-25T11:35:21.875Z,22.80
2023-05-25T11:37:53.580Z,22.80
2023-05-25T11:48:00.992Z,22.80
2023-05-25T11:55:31.258Z,22.90
2023-05-25T11:57:58.324Z,22.80
2023-05-25T12:00:27.072Z,22.90
2023-05-25T12:02:54.005Z,22.90
2023-05-25T12:05:20.934Z,22.90
2023-05-25T12:07:47.724Z,22.90
2023-05-25T12:10:18.853Z,22.90
2023-05-25T12:12:50.524Z,22.90
2023-05-25T12:17:54.581Z,22.90
2023-05-25T12:20:21.816Z,22.90
2023-05-25T12:22:48.880Z,22.90
2023-05-25T12:25:19.577Z,22.90
2023-05-25T12:27:46.256Z,22.90
2023-05-25T12:30:13.034Z,22.90
2023-05-25T12:33:12.849Z,22.90
2023-05-25T12:38:21.722Z,22.90
2023-05-25T12:41:04.027Z,22.90
2023-05-25T12:43:40.373Z,22.90
2023-05-25T12:48:38.513Z,23.00
2023-05-25T12:53:50.934Z,23.00
2023-05-25T12:56:17.597Z,22.90
2023-05-25T13:01:16.840Z,22.90
2023-05-25T13:06:14.871Z,22.90
2023-05-25T13:08:41.489Z,23.00
2023-05-25T13:11:08.077Z,22.90
2023-05-25T13:13:34.651Z,23.00
2023-05-25T13:16:01.338Z,23.00
2023-05-25T13:18:27.977Z,23.00
2023-05-25T13:20:56.889Z,23.00
2023-05-25T13:25:56.473Z,23.00
2023-05-25T13:28:23.090Z,23.00
2023-05-25T13:30:49.683Z,23.10
2023-05-25T13:33:16.437Z,23.00
2023-05-25T13:35:57.958Z,23.00
2023-05-25T13:38:25.147Z,23.10
2023-05-25T13:45:55.097Z,23.10
2023-05-25T13:48:22.292Z,23.00
2023-05-25T13:50:49.349Z,23.10
2023-05-25T13:53:16.256Z,23.10
2023-05-25T13:55:43.387Z,23.10
2023-05-25T13:58:10.028Z,23.10
2023-05-25T14:00:36.813Z,23.10
2023-05-25T14:03:03.749Z,23.10
2023-05-25T14:05:31.331Z,23.10
2023-05-25T14:08:00.814Z,23.10
2023-05-25T14:10:27.386Z,23.10
2023-05-25T14:12:54.317Z,23.10
2023-05-25T14:15:20.923Z,23.10
2023-05-25T14:22:57.249Z,23.10
2023-05-25T14:25:24.013Z,23.10
2023-05-25T14:27:50.830Z,23.10
2023-05-25T14:30:17.518Z,23.10
2023-05-25T14:32:44.156Z,23.10
2023-05-25T14:35:10.815Z,23.10
2023-05-25T14:37:37.457Z,23.10
2023-05-25T14:40:04.900Z,23.10
2023-05-25T14:42:31.499Z,23.20
2023-05-25T14:44:58.101Z,23.10
2023-05-25T14:47:24.862Z,23.10
2023-05-25T14:49:51.654Z,23.20
2023-05-25T14:52:18.350Z,23.20
2023-05-25T14:54:45.173Z,23.20
2023-05-25T14:57:12.309Z,23.20
2023-05-25T14:59:39.249Z,23.20
2023-05-25T15:02:06.157Z,23.10
2023-05-25T15:04:32.769Z,23.20
2023-05-25T15:06:59.489Z,23.20
2023-05-25T15:09:26.203Z,23.20
2023-05-25T15:11:52.860Z,23.20
2023-05-25T15:14:19.515Z,23.20
2023-05-25T15:16:46.473Z,23.20
2023-05-25T15:19:15.934Z,23.20
2023-05-25T15:21:43.999Z,23.20
2023-05-25T15:26:45.240Z,23.20
2023-05-25T15:29:11.827Z,23.20
2023-05-25T15:31:38.515Z,23.20
2023-05-25T15:34:05.456Z,23.20
2023-05-25T15:36:32.710Z,23.20
2023-05-25T15:54:15.366Z,23.30
2023-05-25T15:56:42.015Z,23.30
2023-05-25T16:01:40.244Z,23.30
2023-05-25T16:06:38.994Z,23.30
2023-05-25T16:09:05.642Z,23.30
2023-05-25T16:11:33.931Z,23.30
2023-05-25T16:14:00.550Z,23.30
2023-05-25T16:16:27.167Z,23.30
2023-05-25T16:18:54.261Z,23.40
2023-05-25T16:21:21.214Z,23.40
2023-05-25T16:23:47.819Z,23.40
2023-05-25T16:26:14.464Z,23.40
2023-05-25T16:28:41.203Z,23.40
2023-05-25T16:31:07.873Z,23.40
2023-05-25T16:33:34.835Z,23.40
2023-05-25T16:36:01.658Z,23.40
2023-05-25T16:46:03.485Z,23.40
2023-05-25T16:53:34.755Z,23.40
2023-05-25T17:01:04.711Z,23.40
2023-05-25T17:06:02.966Z,23.40
2023-05-25T17:08:29.593Z,23.40
2023-05-25T17:13:28.775Z,23.40
2023-05-25T17:20:53.889Z,23.40
2023-05-25T17:23:21.928Z,23.40
2023-05-25T17:28:20.133Z,23.40
2023-05-25T17:35:49.773Z,23.40
2023-05-25T17:40:50.139Z,23.40
2023-05-25T17:43:16.983Z,23.40
2023-05-25T17:45:43.837Z,23.40
2023-05-25T17:48:10.702Z,23.40
2023-05-25T17:50:37.337Z,23.40
2023-05-25T17:53:04.177Z,23.40
2023-05-25T17:55:30.790Z,23.40
2023-05-25T17:57:57.377Z,23.30
2023-05-25T18:02:57.377Z,23.40
2023-05-25T18:05:24.081Z,23.40
2023-05-25T18:07:50.744Z,23.40
2023-05-25T18:10:17.317Z,23.40
2023-05-25T18:12:46.072Z,23.40
2023-05-25T18:15:12.790Z,23.40
2023-05-25T18:17:39.447Z,23.40
2023-05-25T18:20:06.730Z,23.40
2023-05-25T18:22:33.396Z,23.40
2023-05-25T18:25:00.153Z,23.40
2023-05-25T18:27:26.782Z,23.40
2023-05-25T18:32:25.269Z,23.40
2023-05-25T18:34:52.083Z,23.40
2023-05-25T18:39:50.347Z,23.40
2023-05-25T18:42:16.969Z,23.40
2023-05-25T18:49:47.005Z,23.40
2023-05-25T18:54:46.750Z,23.40
2023-05-25T18:57:13.417Z,23.40
2023-05-25T18:59:41.443Z,23.40
2023-05-25T19:02:08.192Z,23.40
2023-05-25T19:04:34.864Z,23.40
2023-05-25T19:07:01.483Z,23.40
2023-05-25T19:09:28.536Z,23.40
2023-05-25T19:11:55.133Z,23.40
2023-05-25T19:14:21.705Z,23.40
2023-05-25T19:16:49.137Z,23.40
2023-05-25T19:19:16.138Z,23.30
2023-05-25T19:21:42.829Z,23.40
2023-05-25T19:24:10.004Z,23.30
2023-05-25T19:26:37.808Z,23.40
2023-05-25T19:29:04.744Z,23.30
2023-05-25T19:31:31.481Z,23.30
2023-05-25T19:33:58.115Z,23.40
2023-05-25T19:36:24.743Z,23.30
2023-05-25T19:38:51.384Z,23.30
2023-05-25T19:41:18.057Z,23.30
2023-05-25T19:43:44.793Z,23.30
2023-05-25T19:48:42.929Z,23.40
2023-05-25T20:03:44.459Z,23.40
2023-05-25T20:06:11.212Z,23.40
2023-05-25T20:08:37.880Z,23.40
2023-05-25T20:11:04.555Z,23.40
2023-05-25T20:16:03.043Z,23.40
2023-05-25T20:18:29.662Z,23.40
2023-05-25T20:20:56.286Z,23.40
2023-05-25T20:23:22.949Z,23.40
2023-05-25T20:25:49.591Z,23.40
2023-05-25T20:28:16.253Z,23.40
2023-05-25T20:30:42.861Z,23.40
2023-05-25T20:33:09.472Z,23.30
2023-05-25T20:35:37.586Z,23.40
2023-05-25T20:38:04.685Z,23.40
2023-05-25T20:40:31.293Z,23.40
2023-05-25T20:50:35.362Z,23.30
2023-05-25T20:53:01.924Z,23.30
2023-05-25T20:55:28.654Z,23.30
2023-05-25T20:57:56.629Z,23.30
2023-05-25T21:00:23.671Z,23.20
2023-05-25T21:12:56.668Z,23.20
2023-05-25T21:15:23.356Z,23.20
2023-05-25T21:17:50.068Z,23.20
2023-05-25T21:20:16.840Z,23.20
2023-05-25T21:22:43.507Z,23.20
2023-05-25T21:25:10.584Z,23.20
2023-05-25T21:27:37.321Z,23.20
2023-05-25T21:30:05.084Z,23.20
2023-05-25T21:32:32.508Z,23.20
2023-05-25T21:34:59.134Z,23.10
2023-05-25T21:37:25.803Z,23.10
2023-05-25T21:44:55.512Z,23.10
2023-05-25T21:49:56.534Z,23.10
2023-05-25T21:54:54.994Z,23.10
2023-05-25T21:57:21.690Z,23.10
2023-05-25T21:59:48.277Z,23.10
2023-05-25T22:02:14.932Z,23.10
2023-05-25T22:04:41.606Z,23.10
2023-05-25T22:07:08.192Z,23.00
2023-05-25T22:09:34.863Z,23.10
2023-05-25T22:12:02.217Z,23.10
2023-05-25T22:19:31.810Z,23.00
2023-05-25T22:21:58.434Z,23.00
2023-05-25T22:24:25.102Z,23.00
2023-05-25T22:26:52.411Z,23.00
2023-05-25T22:31:50.787Z,23.00
2023-05-25T22:36:49.011Z,22.90
2023-05-25T22:39:15.584Z,22.90
2023-05-25T22:41:42.258Z,22.90
2023-05-25T22:44:08.837Z,22.90
2023-05-25T22:46:35.770Z,22.90
2023-05-25T22:49:02.464Z,22.90
2023-05-25T22:51:29.098Z,22.90
2023-05-25T22:53:55.740Z,22.90
2023-05-25T23:01:26.253Z,22.90
2023-05-25T23:03:53.046Z,22.80
2023-05-25T23:16:26.729Z,22.80
2023-05-25T23:18:53.468Z,22.80
2023-05-25T23:33:57.600Z,22.80
2023-05-25T23:41:31.278Z,22.80
2023-05-25T23:46:31.676Z,22.80
2023-05-25T23:48:58.561Z,22.80
2023-05-25T23:51:25.203Z,22.90
2023-05-25T23:53:51.903Z,22.80
2023-05-25T23:56:18.513Z,22.80
